Time;durP1;ratioP1;P1;durP2;ratioP2;P2;SDS_P1;SDS_P2;PMS_P1;PMS_P2;Temp;Humidity;BMP_temperature;BMP_pressure;BME280_temperature;BME280_humidity;BME280_pressure;Samples;Min_cycle;Max_cycle;Signal;HPM_P1;HPM_P2
2022/03/31 00:01:21;;;;;;;22.83;13.17;;;5.60;99.90;;;;;;4380606;28;653464;-67
2022/03/31 00:04:59;;;;;;;25.10;13.70;;;5.50;99.90;;;;;;4400653;28;653565;-67
2022/03/31 00:11:30;;;;;;;25.90;13.43;;;5.50;99.90;;;;;;4379043;28;653850;-67
2022/03/31 00:14:17;;;;;;;22.77;13.10;;;5.40;99.90;;;;;;4379598;28;654476;-67
2022/03/31 00:17:04;;;;;;;20.33;12.57;;;5.40;99.90;;;;;;4400133;28;654184;-67
2022/03/31 00:19:52;;;;;;;19.50;13.30;;;5.30;99.90;;;;;;4377139;28;653359;-67
2022/03/31 00:22:39;;;;;;;24.37;13.53;;;5.20;99.90;;;;;;4398020;28;653645;-67
2022/03/31 00:25:27;;;;;;;22.73;13.80;;;5.00;99.90;;;;;;4381523;28;653844;-67
2022/03/31 00:28:16;;;;;;;25.17;13.88;;;4.80;99.90;;;;;;4399558;28;654041;-67
2022/03/31 00:31:03;;;;;;;26.47;14.60;;;4.80;99.90;;;;;;4374548;28;653602;-67
2022/03/31 00:33:50;;;;;;;23.63;15.00;;;4.70;99.90;;;;;;4376799;28;653579;-67
2022/03/31 00:36:38;;;;;;;28.03;15.83;;;4.60;99.90;;;;;;4399294;28;654698;-67
2022/03/31 00:39:32;;;;;;;28.43;15.77;;;4.50;99.90;;;;;;4389071;28;653403;-68
2022/03/31 00:42:19;;;;;;;29.67;16.17;;;4.40;99.90;;;;;;4377366;28;654068;-67
2022/03/31 00:45:14;;;;;;;22.97;14.27;;;4.30;99.90;;;;;;4378267;28;653294;-67
2022/03/31 00:48:02;;;;;;;25.87;14.27;;;4.20;99.90;;;;;;4378072;28;653995;-67
2022/03/31 00:50:49;;;;;;;25.10;15.80;;;4.20;99.90;;;;;;4398822;28;653227;-67
2022/03/31 00:53:37;;;;;;;25.97;15.70;;;4.20;99.90;;;;;;4376305;28;652977;-67
2022/03/31 00:56:24;;;;;;;26.20;15.70;;;4.10;99.90;;;;;;4399211;28;653826;-67
2022/03/31 00:59:12;;;;;;;28.90;16.47;;;4.10;99.90;;;;;;4380326;28;654792;-67
2022/03/31 01:02:01;;;;;;;26.27;16.23;;;3.90;99.90;;;;;;4395885;28;653810;-67
2022/03/31 01:04:48;;;;;;;28.83;16.93;;;3.90;99.90;;;;;;4372436;28;654552;-67
2022/03/31 01:07:36;;;;;;;22.93;13.77;;;3.80;99.90;;;;;;4381123;28;654443;-67
2022/03/31 01:10:23;;;;;;;24.10;15.53;;;3.80;99.90;;;;;;4399041;28;655301;-67
2022/03/31 01:13:10;;;;;;;24.83;15.40;;;3.80;99.90;;;;;;4384012;28;653138;-67
2022/03/31 01:15:58;;;;;;;23.90;14.47;;;3.80;99.90;;;;;;4396202;28;654079;-67
2022/03/31 01:18:47;;;;;;;23.23;13.40;;;3.80;99.90;;;;;;4385161;28;654616;-67
2022/03/31 01:21:37;;;;;;;19.70;11.10;;;3.70;99.90;;;;;;4401744;28;653258;-67
2022/03/31 01:24:27;;;;;;;23.53;13.97;;;3.70;99.90;;;;;;4397260;28;653671;-67
2022/03/31 01:27:14;;;;;;;21.50;13.03;;;3.60;99.90;;;;;;4397500;28;654824;-67
2022/03/31 01:30:01;;;;;;;20.37;11.83;;;3.60;99.90;;;;;;4375356;28;654721;-67
2022/03/31 01:32:49;;;;;;;21.23;12.33;;;3.60;99.90;;;;;;4392540;28;655210;-67
2022/03/31 01:35:36;;;;;;;18.10;12.10;;;3.60;99.90;;;;;;4371998;28;654844;-67
2022/03/31 01:38:23;;;;;;;20.10;12.73;;;3.60;99.90;;;;;;4397329;28;655291;-67
2022/03/31 01:41:12;;;;;;;19.43;12.70;;;3.60;99.90;;;;;;4378675;28;654552;-67
2022/03/31 01:44:00;;;;;;;20.23;12.80;;;3.50;99.90;;;;;;4393969;28;654782;-67
2022/03/31 01:46:48;;;;;;;15.47;11.03;;;3.50;99.90;;;;;;4370300;28;656163;-67
2022/03/31 01:49:36;;;;;;;17.70;11.63;;;3.50;99.90;;;;;;4378690;28;654625;-67
2022/03/31 01:52:23;;;;;;;16.93;11.30;;;3.50;99.90;;;;;;4390889;28;655890;-67
2022/03/31 01:55:11;;;;;;;13.30;8.20;;;3.50;99.90;;;;;;4378627;28;654875;-67
2022/03/31 01:58:00;;;;;;;14.33;9.90;;;3.50;99.90;;;;;;4394794;28;653593;-67
2022/03/31 02:00:47;;;;;;;18.47;11.47;;;3.50;99.90;;;;;;4370930;28;654736;-67
2022/03/31 02:03:34;;;;;;;15.17;10.67;;;3.60;99.90;;;;;;4402922;28;655013;-67
2022/03/31 02:06:22;;;;;;;16.67;11.37;;;3.50;99.90;;;;;;4378879;28;654485;-67
2022/03/31 02:09:09;;;;;;;15.87;10.07;;;3.50;99.90;;;;;;4397392;28;654953;-67
2022/03/31 02:11:58;;;;;;;15.83;10.90;;;3.50;99.90;;;;;;4374480;28;654119;-67
2022/03/31 02:14:47;;;;;;;19.23;12.30;;;3.40;99.90;;;;;;4386212;28;654824;-67
2022/03/31 02:17:34;;;;;;;15.50;11.33;;;3.40;99.90;;;;;;4392419;28;655208;-67
2022/03/31 02:20:21;;;;;;;16.80;10.60;;;3.40;99.90;;;;;;4378138;28;654428;-67
2022/03/31 02:23:09;;;;;;;15.87;10.97;;;3.40;99.90;;;;;;4398587;28;654662;-67
2022/03/31 02:25:56;;;;;;;16.10;10.20;;;3.30;99.90;;;;;;4373732;28;654387;-67
2022/03/31 02:28:43;;;;;;;14.93;10.13;;;3.30;99.90;;;;;;4399261;28;656004;-67
2022/03/31 02:31:32;;;;;;;15.13;11.10;;;3.30;99.90;;;;;;4378526;28;654271;-67
2022/03/31 02:34:20;;;;;;;14.87;10.17;;;3.30;99.90;;;;;;4396043;28;654595;-67
2022/03/31 02:37:07;;;;;;;14.97;9.93;;;3.30;99.90;;;;;;4371328;28;655359;-67
2022/03/31 02:39:54;;;;;;;15.87;10.10;;;3.20;99.90;;;;;;4398002;28;652842;-67
2022/03/31 02:42:42;;;;;;;14.07;9.60;;;3.20;99.90;;;;;;4378474;28;654633;-67
2022/03/31 02:45:29;;;;;;;13.73;9.80;;;3.20;99.90;;;;;;4397335;28;653844;-67
2022/03/31 02:48:18;;;;;;;14.00;9.83;;;3.20;99.90;;;;;;4379632;28;653711;-67
2022/03/31 02:51:05;;;;;;;15.10;10.50;;;3.10;99.90;;;;;;4387116;28;653698;-67
2022/03/31 02:56:57;;;;;;;12.77;9.35;;;3.20;99.90;;;;;;4376362;28;653533;-68
2022/03/31 02:59:45;;;;;;;12.67;8.87;;;3.10;99.90;;;;;;4402481;28;653782;-67
2022/03/31 03:02:32;;;;;;;11.77;8.73;;;3.00;99.90;;;;;;4374540;28;654875;-67
2022/03/31 03:05:21;;;;;;;10.52;7.10;;;3.00;99.90;;;;;;4397029;28;653801;-67
2022/03/31 03:08:08;;;;;;;11.53;7.87;;;3.00;99.90;;;;;;4375736;28;654192;-67
2022/03/31 03:10:57;;;;;;;11.83;8.63;;;3.00;99.90;;;;;;4374668;28;653063;-67
2022/03/31 03:13:45;;;;;;;12.70;8.17;;;3.00;99.90;;;;;;4391789;28;654178;-67
2022/03/31 03:16:32;;;;;;;14.40;8.63;;;3.00;99.90;;;;;;4374195;28;654582;-67
2022/03/31 03:19:19;;;;;;;12.90;8.87;;;3.00;99.90;;;;;;4397734;28;653308;-67
2022/03/31 03:22:08;;;;;;;12.00;7.93;;;2.90;99.90;;;;;;4372248;28;653331;-67
2022/03/31 03:24:56;;;;;;;10.30;7.30;;;2.90;99.90;;;;;;4377011;28;654296;-67
2022/03/31 03:27:43;;;;;;;12.50;8.20;;;3.00;99.90;;;;;;4403204;28;654978;-67
2022/03/31 03:30:30;;;;;;;11.32;7.32;;;2.90;99.90;;;;;;4380075;28;654664;-67
2022/03/31 03:33:18;;;;;;;10.70;7.93;;;2.90;99.90;;;;;;4398233;28;656210;-67
2022/03/31 03:36:08;;;;;;;10.77;7.82;;;2.90;99.90;;;;;;4380793;28;655485;-67
2022/03/31 03:38:57;;;;;;;10.43;7.43;;;2.90;99.90;;;;;;4377971;28;654324;-67
2022/03/31 03:41:45;;;;;;;9.93;7.63;;;2.90;99.90;;;;;;4397996;28;654541;-67
2022/03/31 03:44:32;;;;;;;9.77;7.47;;;2.90;99.90;;;;;;4378044;28;655637;-67
2022/03/31 03:47:19;;;;;;;11.90;8.23;;;2.80;99.90;;;;;;4400279;28;653647;-67
2022/03/31 03:50:07;;;;;;;10.67;7.40;;;2.80;99.90;;;;;;4377745;28;654708;-67
2022/03/31 03:52:54;;;;;;;9.60;6.67;;;2.80;99.90;;;;;;4393822;28;654223;-68
2022/03/31 03:55:43;;;;;;;10.00;6.67;;;2.80;99.90;;;;;;4382019;28;654902;-67
2022/03/31 03:58:30;;;;;;;9.20;6.80;;;2.80;99.90;;;;;;4381427;28;654556;-67
2022/03/31 04:01:19;;;;;;;10.67;7.20;;;2.80;99.90;;;;;;4401338;28;655016;-67
2022/03/31 04:04:06;;;;;;;7.17;5.57;;;2.70;99.90;;;;;;4377983;28;654136;-67
2022/03/31 04:06:54;;;;;;;8.00;6.60;;;2.80;99.90;;;;;;4395373;28;653355;-67
2022/03/31 04:09:41;;;;;;;7.60;5.67;;;2.70;99.90;;;;;;4379372;28;653611;-67
2022/03/31 04:12:30;;;;;;;8.20;6.00;;;2.70;99.90;;;;;;4397845;28;652369;-67
2022/03/31 04:15:17;;;;;;;11.70;5.70;;;2.70;99.90;;;;;;4377683;28;654501;-67
2022/03/31 04:18:05;;;;;;;7.60;6.00;;;2.70;99.90;;;;;;4395444;28;654255;-67
2022/03/31 04:20:53;;;;;;;6.50;4.73;;;2.70;99.90;;;;;;4372494;28;653903;-67
2022/03/31 04:23:40;;;;;;;7.07;5.18;;;2.70;99.90;;;;;;4377470;28;653710;-67
2022/03/31 04:26:28;;;;;;;8.07;5.73;;;2.70;99.90;;;;;;4404382;28;654984;-67
2022/03/31 04:29:17;;;;;;;7.47;5.77;;;2.70;99.90;;;;;;4390464;28;653560;-67
2022/03/31 04:32:05;;;;;;;8.67;6.40;;;2.70;99.90;;;;;;4399597;28;653346;-67
2022/03/31 04:34:52;;;;;;;9.70;6.73;;;2.70;99.90;;;;;;4376114;28;654546;-67
2022/03/31 04:37:39;;;;;;;8.30;6.23;;;2.60;99.90;;;;;;4399418;28;653689;-67
2022/03/31 04:40:27;;;;;;;9.47;6.13;;;2.70;99.90;;;;;;4381758;28;653464;-67
2022/03/31 04:43:14;;;;;;;10.93;7.13;;;2.60;99.90;;;;;;4400086;28;653796;-67
2022/03/31 04:46:03;;;;;;;9.47;6.43;;;2.60;99.90;;;;;;4377956;28;654408;-67
2022/03/31 04:48:50;;;;;;;6.73;5.07;;;2.60;99.90;;;;;;4377725;28;653567;-67
2022/03/31 04:51:38;;;;;;;8.10;6.23;;;2.70;99.90;;;;;;4392347;28;654484;-67
2022/03/31 04:54:25;;;;;;;7.57;5.83;;;2.70;99.90;;;;;;4391433;28;654309;-67
2022/03/31 04:57:13;;;;;;;7.97;6.43;;;2.70;99.90;;;;;;4397213;28;654211;-67
2022/03/31 05:00:00;;;;;;;8.83;6.27;;;2.70;99.90;;;;;;4378532;28;653598;-67
2022/03/31 05:02:49;;;;;;;6.97;5.47;;;2.60;99.90;;;;;;4400437;28;654620;-68
2022/03/31 05:05:36;;;;;;;8.32;6.22;;;2.60;99.90;;;;;;4381615;28;653499;-67
2022/03/31 05:08:24;;;;;;;8.57;6.20;;;2.60;99.90;;;;;;4400432;28;653331;-67
2022/03/31 05:11:11;;;;;;;7.57;6.17;;;2.60;99.90;;;;;;4380256;28;653537;-67
2022/03/31 05:13:58;;;;;;;8.57;6.97;;;2.60;99.90;;;;;;4404356;28;654742;-67
2022/03/31 05:16:46;;;;;;;7.20;5.80;;;2.60;99.90;;;;;;4381420;28;653588;-67
2022/03/31 05:19:35;;;;;;;8.87;6.37;;;2.60;99.90;;;;;;4402658;28;653626;-67
2022/03/31 05:22:23;;;;;;;8.63;6.80;;;2.50;99.90;;;;;;4377202;28;653936;-67
2022/03/31 05:25:11;;;;;;;8.40;6.20;;;2.60;99.90;;;;;;4388962;28;653524;-67
2022/03/31 05:28:00;;;;;;;8.00;5.80;;;2.50;99.90;;;;;;4400695;28;653932;-67
2022/03/31 05:30:47;;;;;;;7.07;5.40;;;2.50;99.90;;;;;;4374258;28;654438;-67
2022/03/31 05:33:34;;;;;;;7.20;5.87;;;2.60;99.90;;;;;;4383313;28;654010;-67
2022/03/31 05:36:23;;;;;;;7.80;6.30;;;2.60;99.90;;;;;;4376828;28;653188;-67
2022/03/31 05:39:10;;;;;;;84.27;7.97;;;2.60;99.90;;;;;;4358944;28;653215;-67
2022/03/31 05:41:58;;;;;;;9.13;6.07;;;2.60;99.90;;;;;;4385395;28;655974;-67
2022/03/31 05:44:45;;;;;;;9.25;7.00;;;2.60;99.90;;;;;;4364071;28;653710;-68
2022/03/31 05:47:33;;;;;;;9.33;6.87;;;2.60;99.90;;;;;;4378434;28;654922;-68
2022/03/31 05:50:20;;;;;;;9.98;7.00;;;2.60;99.90;;;;;;4361269;28;653675;-67
2022/03/31 05:53:09;;;;;;;10.47;7.63;;;2.60;99.90;;;;;;4374673;28;654894;-67
2022/03/31 05:55:57;;;;;;;8.60;7.17;;;2.50;99.90;;;;;;4361512;28;654569;-67
2022/03/31 05:58:45;;;;;;;9.23;6.83;;;2.50;99.90;;;;;;4380274;28;653689;-67
2022/03/31 06:01:32;;;;;;;11.73;7.93;;;2.60;99.90;;;;;;4355861;28;654698;-67
2022/03/31 06:04:21;;;;;;;9.83;7.43;;;2.50;99.90;;;;;;4379079;28;655530;-67
2022/03/31 06:07:09;;;;;;;8.43;6.17;;;2.50;99.90;;;;;;4358832;28;654592;-67
2022/03/31 06:09:58;;;;;;;10.87;7.77;;;2.60;99.90;;;;;;4356447;28;653695;-67
2022/03/31 06:12:45;;;;;;;15.33;7.37;;;2.60;99.90;;;;;;4362069;28;654250;-67
2022/03/31 06:15:34;;;;;;;40.13;14.00;;;2.60;99.90;;;;;;4373782;28;655585;-67
2022/03/31 06:18:23;;;;;;;65.23;19.73;;;2.60;99.90;;;;;;4357825;28;656167;-67
2022/03/31 06:21:10;;;;;;;79.33;23.73;;;2.60;99.90;;;;;;4371012;28;655645;-68
2022/03/31 06:23:58;;;;;;;28.50;12.90;;;2.70;99.90;;;;;;4378381;28;656375;-67
2022/03/31 06:26:47;;;;;;;9.87;6.53;;;2.70;99.90;;;;;;4368186;28;655335;-67
2022/03/31 06:29:34;;;;;;;9.03;6.80;;;2.70;99.90;;;;;;4380884;28;653531;-67
2022/03/31 06:32:22;;;;;;;13.77;8.13;;;2.70;99.90;;;;;;4357496;28;654388;-67
2022/03/31 06:35:14;;;;;;;11.60;7.83;;;2.70;99.90;;;;;;4379266;28;654167;-67
2022/03/31 06:38:02;;;;;;;13.40;7.88;;;2.80;99.90;;;;;;4344704;28;655860;-67
2022/03/31 06:43:52;;;;;;;7.77;6.00;;;2.90;99.90;;;;;;4360119;28;656048;-67
2022/03/31 06:46:39;;;;;;;8.67;6.40;;;2.90;99.90;;;;;;4395152;28;654183;-67
2022/03/31 06:49:26;;;;;;;10.90;7.07;;;2.90;99.90;;;;;;4385990;28;653509;-67
2022/03/31 06:52:14;;;;;;;12.73;7.33;;;3.00;99.90;;;;;;4395859;28;655054;-67
2022/03/31 06:55:01;;;;;;;11.37;7.60;;;3.00;99.90;;;;;;4366759;28;654758;-67
2022/03/31 06:57:48;;;;;;;11.43;7.93;;;3.00;99.90;;;;;;4391227;28;655597;-67
2022/03/31 07:00:37;;;;;;;19.43;10.20;;;3.00;99.90;;;;;;4378311;28;654966;-67
2022/03/31 07:03:24;;;;;;;11.33;7.53;;;3.00;99.90;;;;;;4391224;28;655193;-67
2022/03/31 07:06:12;;;;;;;9.90;6.73;;;3.00;99.90;;;;;;4375329;28;655891;-67
2022/03/31 07:08:59;;;;;;;8.50;6.43;;;3.10;99.90;;;;;;4398090;28;653394;-67
2022/03/31 07:11:47;;;;;;;8.20;5.83;;;3.10;99.90;;;;;;4372079;28;654682;-67
2022/03/31 07:14:37;;;;;;;10.33;6.97;;;3.20;99.90;;;;;;4394675;28;653660;-67
2022/03/31 07:17:27;;;;;;;10.37;7.03;;;3.20;99.90;;;;;;4377696;28;654388;-67
2022/03/31 07:20:14;;;;;;;9.27;6.40;;;3.20;99.90;;;;;;4394295;28;655274;-67
2022/03/31 07:23:01;;;;;;;10.82;6.85;;;3.20;99.90;;;;;;4378594;28;653666;-67
2022/03/31 07:25:49;;;;;;;8.70;6.60;;;3.30;99.90;;;;;;4391821;28;654985;-67
2022/03/31 07:28:36;;;;;;;13.37;7.50;;;3.30;99.90;;;;;;4373388;28;653229;-67
2022/03/31 07:31:24;;;;;;;13.03;8.10;;;3.30;99.90;;;;;;4390713;28;655518;-67
2022/03/31 07:34:13;;;;;;;10.53;7.60;;;3.30;99.90;;;;;;4372274;28;655583;-67
2022/03/31 07:37:01;;;;;;;11.10;8.77;;;3.30;99.90;;;;;;4373965;28;654220;-67
2022/03/31 07:39:48;;;;;;;10.13;7.50;;;3.30;99.90;;;;;;4390228;28;656051;-67
2022/03/31 07:42:35;;;;;;;11.73;7.93;;;3.40;99.90;;;;;;4373791;28;654462;-67
2022/03/31 07:45:23;;;;;;;12.20;7.87;;;3.40;99.90;;;;;;4390949;28;655360;-67
2022/03/31 07:48:15;;;;;;;12.40;8.17;;;3.30;99.90;;;;;;4383324;28;654435;-67
2022/03/31 07:51:03;;;;;;;15.67;9.90;;;3.40;99.90;;;;;;4377476;28;655164;-67
2022/03/31 07:53:51;;;;;;;13.80;8.53;;;3.40;99.90;;;;;;4365630;28;655786;-67
2022/03/31 07:56:38;;;;;;;16.58;9.38;;;3.50;99.90;;;;;;4399661;28;655005;-67
2022/03/31 07:59:32;;;;;;;17.23;9.20;;;3.50;99.90;;;;;;4377753;28;655073;-67
2022/03/31 08:02:19;;;;;;;27.43;10.47;;;3.50;99.90;;;;;;4378224;28;654722;-67
2022/03/31 08:05:07;;;;;;;58.47;15.43;;;3.50;99.90;;;;;;4370826;28;655678;-67
2022/03/31 08:07:57;;;;;;;29.40;12.00;;;3.50;99.90;;;;;;4389885;28;655342;-67
2022/03/31 08:10:44;;;;;;;20.30;11.10;;;3.50;99.90;;;;;;4393135;28;655879;-67
2022/03/31 08:13:32;;;;;;;11.17;7.67;;;3.50;99.90;;;;;;4373880;28;655847;-67
2022/03/31 08:16:19;;;;;;;11.87;7.63;;;3.50;99.90;;;;;;4392421;28;654952;-67
2022/03/31 08:19:06;;;;;;;14.83;8.77;;;3.60;99.90;;;;;;4378320;28;654508;-67
2022/03/31 08:21:54;;;;;;;13.37;9.13;;;3.60;99.90;;;;;;4386545;28;656380;-67
2022/03/31 08:24:42;;;;;;;12.83;8.27;;;3.60;99.90;;;;;;4380649;28;654959;-66
2022/03/31 08:27:32;;;;;;;10.37;6.33;;;3.60;99.90;;;;;;4390289;28;654243;-67
2022/03/31 08:30:20;;;;;;;28.20;10.57;;;3.70;99.90;;;;;;4375839;28;654510;-67
2022/03/31 08:33:10;;;;;;;94.23;20.63;;;3.70;99.90;;;;;;4376089;28;656825;-67
2022/03/31 08:35:57;;;;;;;204.67;48.47;;;3.70;99.90;;;;;;4373910;28;657098;-67
2022/03/31 08:38:45;;;;;;;31.43;15.97;;;3.70;99.90;;;;;;4390439;28;656968;-67
2022/03/31 08:41:33;;;;;;;36.80;20.53;;;3.70;99.90;;;;;;4372064;28;656513;-67
2022/03/31 08:44:21;;;;;;;32.63;20.20;;;3.70;99.90;;;;;;4364685;28;655588;-67
2022/03/31 08:47:09;;;;;;;31.58;18.00;;;3.80;99.90;;;;;;4398418;28;656101;-67
2022/03/31 08:49:57;;;;;;;34.97;21.90;;;3.80;99.90;;;;;;4372622;28;656029;-67
2022/03/31 08:52:44;;;;;;;31.03;18.17;;;3.90;99.90;;;;;;4394046;28;656090;-67
2022/03/31 08:55:31;;;;;;;20.77;11.37;;;4.00;99.90;;;;;;4375395;28;655544;-67
2022/03/31 08:58:20;;;;;;;16.63;11.07;;;4.00;99.90;;;;;;4394953;28;656153;-67
2022/03/31 09:01:08;;;;;;;16.33;11.40;;;4.00;99.90;;;;;;4365177;28;656059;-67
2022/03/31 09:04:02;;;;;;;18.07;11.30;;;4.10;99.90;;;;;;4375676;28;655609;-67
2022/03/31 09:06:49;;;;;;;13.63;9.27;;;4.10;99.90;;;;;;4367259;28;656594;-67
2022/03/31 09:09:45;;;;;;;17.20;10.43;;;4.10;99.90;;;;;;4376106;28;654093;-67
2022/03/31 09:12:39;;;;;;;15.23;9.60;;;4.10;99.90;;;;;;4350135;28;656428;-67
2022/03/31 09:15:27;;;;;;;17.20;10.73;;;4.20;99.90;;;;;;4351247;28;655076;-67
2022/03/31 09:18:17;;;;;;;16.60;10.80;;;4.20;99.90;;;;;;4395550;28;655641;-67
2022/03/31 09:21:05;;;;;;;13.30;9.30;;;4.20;99.90;;;;;;4365881;28;656081;-67
2022/03/31 09:23:52;;;;;;;15.43;9.83;;;4.30;99.90;;;;;;4375273;28;655482;-67
2022/03/31 09:26:45;;;;;;;21.93;11.33;;;4.30;99.90;;;;;;4392228;28;654499;-67
2022/03/31 09:29:33;;;;;;;16.67;10.03;;;4.20;99.90;;;;;;4376295;28;656422;-67
2022/03/31 09:32:22;;;;;;;39.50;12.13;;;4.20;99.90;;;;;;4375630;28;655265;-67
2022/03/31 09:35:10;;;;;;;39.83;12.07;;;4.30;99.90;;;;;;4391359;28;655408;-67
2022/03/31 09:37:59;;;;;;;86.30;21.37;;;4.20;99.90;;;;;;4370215;28;655773;-67
2022/03/31 09:40:46;;;;;;;18.27;10.20;;;4.10;99.90;;;;;;4373718;28;655432;-67
2022/03/31 09:43:40;;;;;;;22.63;11.03;;;4.00;99.90;;;;;;4393848;28;656167;-67
2022/03/31 09:46:28;;;;;;;19.77;11.03;;;4.00;99.90;;;;;;4347205;28;655548;-67
2022/03/31 09:49:18;;;;;;;16.67;10.70;;;4.00;99.90;;;;;;4376963;28;655834;-67
2022/03/31 09:52:07;;;;;;;16.00;10.10;;;4.00;99.90;;;;;;4369980;28;655259;-67
2022/03/31 09:54:55;;;;;;;15.60;10.20;;;3.90;99.90;;;;;;4386662;28;655666;-67
2022/03/31 09:57:43;;;;;;;15.40;9.67;;;3.90;99.90;;;;;;4396098;28;656586;-67
2022/03/31 10:00:30;;;;;;;13.20;8.90;;;3.90;99.90;;;;;;4388384;28;654725;-67
2022/03/31 10:03:18;;;;;;;21.77;11.70;;;3.90;99.90;;;;;;4397458;28;656193;-67
2022/03/31 10:06:07;;;;;;;17.30;10.43;;;3.90;99.90;;;;;;4374722;28;655738;-67
2022/03/31 10:08:57;;;;;;;24.63;13.47;;;3.90;99.90;;;;;;4387501;28;655949;-67
2022/03/31 10:11:46;;;;;;;19.17;10.87;;;3.80;99.90;;;;;;4393524;28;656321;-67
2022/03/31 10:14:36;;;;;;;15.10;10.17;;;3.80;99.90;;;;;;4367563;28;656462;-67
2022/03/31 10:17:27;;;;;;;13.70;9.03;;;3.90;99.90;;;;;;4376158;28;656379;-67
2022/03/31 10:20:15;;;;;;;16.00;10.47;;;3.80;99.90;;;;;;4371631;28;654834;-67
2022/03/31 10:26:09;;;;;;;16.70;9.27;;;3.70;99.90;;;;;;4363525;28;655891;-67
2022/03/31 10:28:57;;;;;;;16.37;9.63;;;3.80;99.90;;;;;;4375230;28;654435;-67
2022/03/31 10:31:45;;;;;;;18.30;10.47;;;3.80;99.90;;;;;;4392897;28;654397;-67
2022/03/31 10:34:35;;;;;;;16.43;9.83;;;3.70;99.90;;;;;;4364056;28;656456;-67
2022/03/31 10:37:34;;;;;;;16.60;10.00;;;3.70;99.90;;;;;;4373748;28;655863;-67
2022/03/31 10:40:33;;;;;;;49.53;17.67;;;3.70;99.90;;;;;;4349359;28;655948;-67
2022/03/31 10:43:22;;;;;;;15.13;8.70;;;3.70;99.90;;;;;;4345743;28;656144;-67
2022/03/31 10:46:17;;;;;;;38.63;11.97;;;3.70;99.90;;;;;;4389978;28;655231;-67
2022/03/31 10:49:07;;;;;;;31.63;13.10;;;3.70;99.90;;;;;;4373530;28;656047;-68
2022/03/31 10:51:54;;;;;;;18.77;9.47;;;3.60;99.90;;;;;;4373957;28;656043;-67
2022/03/31 10:54:41;;;;;;;19.63;10.77;;;3.70;99.90;;;;;;4379000;28;654598;-68
2022/03/31 10:57:38;;;;;;;15.87;9.63;;;3.60;99.90;;;;;;4393279;28;656347;-68
2022/03/31 11:00:26;;;;;;;26.47;11.50;;;3.60;99.90;;;;;;4346423;28;654268;-67
2022/03/31 11:03:17;;;;;;;47.13;16.13;;;3.60;99.90;;;;;;4395156;28;656708;-67
2022/03/31 11:06:05;;;;;;;40.87;17.83;;;3.50;99.90;;;;;;4365411;28;656545;-68
2022/03/31 11:08:52;;;;;;;25.10;12.45;;;3.50;99.90;;;;;;4372876;28;655436;-67
2022/03/31 11:11:40;;;;;;;24.80;14.30;;;3.50;99.90;;;;;;4393686;28;655394;-68
2022/03/31 11:14:29;;;;;;;20.50;12.97;;;3.40;99.90;;;;;;4385776;28;656437;-67
2022/03/31 11:17:18;;;;;;;21.70;11.37;;;3.40;99.90;;;;;;4370019;28;655644;-68
2022/03/31 11:20:14;;;;;;;25.10;13.13;;;3.40;99.90;;;;;;4388140;28;655698;-67
2022/03/31 11:23:06;;;;;;;22.83;12.20;;;3.50;99.90;;;;;;4372115;28;655770;-68
2022/03/31 11:25:53;;;;;;;21.90;11.83;;;3.50;99.90;;;;;;4374191;28;656865;-68
2022/03/31 11:28:40;;;;;;;19.70;11.60;;;3.50;99.90;;;;;;4374615;28;655423;-68
2022/03/31 11:31:30;;;;;;;21.67;12.53;;;3.50;99.90;;;;;;4392496;28;656506;-68
2022/03/31 11:34:17;;;;;;;23.37;13.37;;;3.50;99.90;;;;;;4373017;28;656588;-67
2022/03/31 11:37:06;;;;;;;23.53;14.00;;;3.40;99.90;;;;;;4390139;28;655684;-68
2022/03/31 11:39:53;;;;;;;25.47;14.10;;;3.40;99.90;;;;;;4389618;28;656443;-68
2022/03/31 11:42:45;;;;;;;25.93;13.53;;;3.40;99.90;;;;;;4368564;28;655140;-68
2022/03/31 11:45:34;;;;;;;22.60;12.87;;;3.40;99.90;;;;;;4371234;28;656883;-68
2022/03/31 11:48:23;;;;;;;21.07;12.23;;;3.40;99.90;;;;;;4375259;28;656050;-68
2022/03/31 11:51:11;;;;;;;25.93;12.67;;;3.50;99.90;;;;;;4376550;28;655698;-68
2022/03/31 11:54:07;;;;;;;21.43;12.63;;;3.40;99.90;;;;;;4391935;28;655734;-68
2022/03/31 11:57:03;;;;;;;23.00;12.37;;;3.40;99.90;;;;;;4369721;28;656107;-67
2022/03/31 11:59:50;;;;;;;25.73;13.63;;;3.40;99.90;;;;;;4348603;28;656309;-68
2022/03/31 12:02:38;;;;;;;25.10;13.00;;;3.40;99.90;;;;;;4390019;28;657186;-67
2022/03/31 12:05:27;;;;;;;33.95;14.27;;;3.40;99.90;;;;;;4368914;28;655482;-67
2022/03/31 12:08:14;;;;;;;34.73;16.23;;;3.40;99.90;;;;;;4397193;28;655476;-67
2022/03/31 12:11:01;;;;;;;28.07;14.80;;;3.40;99.90;;;;;;4373718;28;655572;-67
2022/03/31 12:13:50;;;;;;;27.83;14.67;;;3.30;99.90;;;;;;4391316;28;656081;-67
2022/03/31 12:16:44;;;;;;;29.40;15.27;;;3.40;99.90;;;;;;4370083;28;656089;-67
2022/03/31 12:19:38;;;;;;;35.47;14.90;;;3.50;99.90;;;;;;4376342;28;655396;-67
2022/03/31 12:22:33;;;;;;;37.27;15.63;;;3.50;99.90;;;;;;4371429;28;655888;-67
2022/03/31 12:25:30;;;;;;;25.90;12.80;;;3.50;99.90;;;;;;4354645;28;655972;-67
2022/03/31 12:28:20;;;;;;;23.47;11.77;;;3.40;99.90;;;;;;4353257;28;656285;-67
2022/03/31 12:31:07;;;;;;;25.43;13.07;;;3.40;99.90;;;;;;4376664;28;656666;-68
2022/03/31 12:33:56;;;;;;;28.83;14.93;;;3.40;99.90;;;;;;4396582;28;656027;-68
2022/03/31 12:36:44;;;;;;;27.40;13.40;;;3.40;99.90;;;;;;4365043;28;656025;-68
2022/03/31 12:39:40;;;;;;;171.33;13.60;;;3.50;99.90;;;;;;4373622;28;655283;-68
2022/03/31 12:42:27;;;;;;;20.00;11.20;;;3.60;99.90;;;;;;4370348;28;656823;-67
2022/03/31 12:45:15;;;;;;;17.53;10.40;;;3.60;99.90;;;;;;4391231;28;656138;-67
2022/03/31 12:48:07;;;;;;;17.17;8.40;;;3.60;99.90;;;;;;4369884;28;655578;-68
2022/03/31 12:51:03;;;;;;;14.10;8.30;;;3.60;99.90;;;;;;4375588;28;654499;-68
2022/03/31 12:53:51;;;;;;;17.17;9.77;;;3.60;99.90;;;;;;4347568;28;655183;-67
2022/03/31 12:56:40;;;;;;;17.73;8.57;;;3.60;99.90;;;;;;4397624;28;655464;-67
2022/03/31 12:59:30;;;;;;;12.98;8.05;;;3.70;99.90;;;;;;4373632;28;655146;-68
2022/03/31 13:02:17;;;;;;;15.00;9.27;;;3.70;99.90;;;;;;4369757;28;655140;-68
2022/03/31 13:05:05;;;;;;;12.65;8.18;;;3.70;99.90;;;;;;4391606;28;656300;-68
2022/03/31 13:07:53;;;;;;;13.67;8.23;;;3.70;99.90;;;;;;4371342;28;655364;-68
2022/03/31 13:10:41;;;;;;;13.37;8.33;;;3.70;99.90;;;;;;4369747;28;654671;-68
2022/03/31 13:13:31;;;;;;;15.73;9.23;;;3.70;99.90;;;;;;4387023;28;654833;-68
2022/03/31 13:16:18;;;;;;;15.53;9.03;;;3.70;99.90;;;;;;4368941;28;655695;-68
2022/03/31 13:19:05;;;;;;;21.08;9.90;;;3.70;99.90;;;;;;4374423;28;654365;-68
2022/03/31 13:21:53;;;;;;;16.40;9.57;;;3.60;99.90;;;;;;4384674;28;655207;-68
2022/03/31 13:24:41;;;;;;;16.88;10.48;;;3.70;99.90;;;;;;4379808;28;654734;-68
2022/03/31 13:27:28;;;;;;;14.97;9.03;;;3.70;99.90;;;;;;4394224;28;656943;-68
2022/03/31 13:30:17;;;;;;;19.50;10.43;;;3.70;99.90;;;;;;4372672;28;654288;-68
2022/03/31 13:33:04;;;;;;;16.60;9.90;;;3.70;99.90;;;;;;4390624;28;656907;-68
2022/03/31 13:35:51;;;;;;;20.00;10.47;;;3.60;99.90;;;;;;4371357;28;654212;-68
2022/03/31 13:38:39;;;;;;;18.10;9.93;;;3.70;99.90;;;;;;4390811;28;656077;-68
2022/03/31 13:41:27;;;;;;;21.60;11.33;;;3.70;99.90;;;;;;4378368;28;654657;-68
2022/03/31 13:44:15;;;;;;;15.57;9.70;;;3.60;99.90;;;;;;4395364;28;656069;-68
2022/03/31 13:47:04;;;;;;;40.67;11.67;;;3.70;99.90;;;;;;4375332;28;655804;-68
2022/03/31 13:49:51;;;;;;;16.60;10.20;;;3.70;99.90;;;;;;4374651;28;655442;-67
2022/03/31 13:52:39;;;;;;;17.10;10.10;;;3.70;99.90;;;;;;4395021;28;656281;-67
2022/03/31 13:55:27;;;;;;;14.93;10.10;;;3.70;99.90;;;;;;4371331;28;655442;-67
2022/03/31 14:01:19;;;;;;;12.33;7.80;;;3.70;99.90;;;;;;4375386;28;655155;-68
2022/03/31 14:04:08;;;;;;;17.57;9.67;;;3.70;99.90;;;;;;4376866;28;654582;-67
2022/03/31 14:06:56;;;;;;;13.67;8.27;;;3.70;99.90;;;;;;4370616;28;654961;-67
2022/03/31 14:09:44;;;;;;;13.20;8.20;;;3.70;99.90;;;;;;4395077;28;655213;-68
2022/03/31 14:12:31;;;;;;;18.13;9.93;;;3.70;99.90;;;;;;4377249;28;654928;-67
2022/03/31 14:15:18;;;;;;;15.97;10.07;;;3.70;99.90;;;;;;4391621;28;655308;-68
2022/03/31 14:18:06;;;;;;;16.83;8.80;;;3.60;99.90;;;;;;4376767;28;655548;-67
2022/03/31 14:20:55;;;;;;;14.47;8.77;;;3.60;99.90;;;;;;4388672;28;655143;-67
2022/03/31 14:23:44;;;;;;;11.40;7.67;;;3.70;99.90;;;;;;4373793;28;655946;-68
2022/03/31 14:26:33;;;;;;;15.00;9.27;;;3.60;99.90;;;;;;4372557;28;654989;-67
2022/03/31 14:29:20;;;;;;;20.70;10.70;;;3.60;99.90;;;;;;4384447;28;654855;-67
2022/03/31 14:32:08;;;;;;;16.37;9.77;;;3.60;99.90;;;;;;4393020;28;656391;-67
2022/03/31 14:34:55;;;;;;;18.95;9.65;;;3.50;99.90;;;;;;4376863;28;654433;-67
2022/03/31 14:37:44;;;;;;;20.03;9.80;;;3.60;99.90;;;;;;4392917;28;655993;-68